Time,TemperatureF,DewpointF,PressureIn,WindDirection,WindDirectionDegrees,WindSpeedMPH,WindSpeedGustMPH,Humidity,HourlyPrecipIn,Conditions,Clouds,dailyrainin,SoftwareType,DateUTC
2013-05-19 00:01:00,59.5,43.9,-100.00,NW,321,0.0,4.0,56,0.00,,,0.00,meteohub,2013-05-19 04:01:00,
2013-05-19 00:02:00,59.5,43.9,-100.00,WNW,295,1.0,4.0,56,0.00,,,0.00,meteohub,2013-05-19 04:02:00,
2013-05-19 00:07:00,59.4,44.1,-100.00,ENE,72,0.0,4.0,57,0.00,,,0.00,meteohub,2013-05-19 04:07:00,
2013-05-19 00:12:00,59.2,43.9,-100.00,NNE,23,1.0,2.0,57,0.00,,,0.00,meteohub,2013-05-19 04:12:00,
2013-05-19 00:17:00,59.2,43.9,-100.00,SE,131,0.0,1.0,57,0.00,,,0.00,meteohub,2013-05-19 04:17:00,
2013-05-19 00:22:00,59.2,43.9,-100.00,ESE,120,0.0,1.0,57,0.00,,,0.00,meteohub,2013-05-19 04:22:00,
2013-05-19 00:27:00,59.0,43.3,-100.00,SE,135,0.0,2.0,56,0.00,,,0.00,meteohub,2013-05-19 04:27:00,
2013-05-19 00:32:00,59.0,43.7,-100.00,ESE,107,0.0,3.0,57,0.00,,,0.00,meteohub,2013-05-19 04:32:00,
2013-05-19 00:37:00,58.8,44.1,-100.00,ESE,122,1.0,3.0,58,0.00,,,0.00,meteohub,2013-05-19 04:37:00,
2013-05-19 00:42:00,58.8,43.7,-100.00,East,81,0.0,2.0,57,0.00,,,0.00,meteohub,2013-05-19 04:42:00,
2013-05-19 00:47:00,58.6,42.4,-100.00,ESE,110,0.0,3.0,55,0.00,,,0.00,meteohub,2013-05-19 04:47:00,
2013-05-19 00:52:00,58.6,43.5,-100.00,ESE,114,0.0,3.0,57,0.00,,,0.00,meteohub,2013-05-19 04:52:00,
2013-05-19 00:57:00,58.6,43.9,-100.00,North,350,0.0,3.0,58,0.00,,,0.00,meteohub,2013-05-19 04:57:00,
2013-05-19 01:02:00,58.5,43.7,-100.00,SE,141,0.0,3.0,58,0.00,,,0.00,meteohub,2013-05-19 05:02:00,
2013-05-19 01:07:00,58.3,43.5,-100.00,SE,139,0.0,2.0,58,0.00,,,0.00,meteohub,2013-05-19 05:07:00,
2013-05-19 01:12:00,58.3,43.5,-100.00,SE,141,0.0,2.0,58,0.00,,,0.00,meteohub,2013-05-19 05:12:00,
2013-05-19 01:17:00,58.3,43.5,-100.00,ESE,122,0.0,2.0,58,0.00,,,0.00,meteohub,2013-05-19 05:17:00,
2013-05-19 01:22:00,58.3,44.1,-100.00,East,95,0.0,2.0,59,0.00,,,0.00,meteohub,2013-05-19 05:22:00,
2013-05-19 01:27:00,58.1,44.2,-100.00,East,95,0.0,2.0,60,0.00,,,0.00,meteohub,2013-05-19 05:27:00,
2013-05-19 01:32:00,57.9,45.0,-100.00,East,95,0.0,1.0,62,0.00,,,0.00,meteohub,2013-05-19 05:32:00,
2013-05-19 01:37:00,57.6,44.2,-100.00,East,94,0.0,1.0,61,0.00,,,0.00,meteohub,2013-05-19 05:37:00,
2013-05-19 01:42:00,57.4,44.1,-100.00,East,94,0.0,0.0,61,0.00,,,0.00,meteohub,2013-05-19 05:42:00,
2013-05-19 01:47:00,57.0,44.1,-100.00,East,94,0.0,0.0,62,0.00,,,0.00,meteohub,2013-05-19 05:47:00,
2013-05-19 01:52:00,56.7,44.2,-100.00,East,94,0.0,0.0,63,0.00,,,0.00,meteohub,2013-05-19 05:52:00,
2013-05-19 01:57:00,56.5,44.4,-100.00,East,94,0.0,0.0,64,0.00,,,0.00,meteohub,2013-05-19 05:57:00,
2013-05-19 02:02:00,56.1,44.1,-100.00,East,94,0.0,0.0,64,0.00,,,0.00,meteohub,2013-05-19 06:02:00,
2013-05-19 02:07:00,55.9,43.9,-100.00,East,94,0.0,0.0,64,0.00,,,0.00,meteohub,2013-05-19 06:07:00,
2013-05-19 02:12:00,55.6,43.5,-100.00,East,94,0.0,0.0,64,0.00,,,0.00,meteohub,2013-05-19 06:12:00,
2013-05-19 02:17:00,55.0,44.6,-100.00,East,94,0.0,0.0,68,0.00,,,0.00,meteohub,2013-05-19 06:17:00,
2013-05-19 02:22:00,54.3,44.4,-100.00,East,94,0.0,0.0,69,0.00,,,0.00,meteohub,2013-05-19 06:22:00,
2013-05-19 02:27:00,54.0,44.4,-100.00,East,94,0.0,0.0,70,0.00,,,0.00,meteohub,2013-05-19 06:27:00,
2013-05-19 02:32:00,53.6,44.4,-100.00,East,94,0.0,0.0,71,0.00,,,0.00,meteohub,2013-05-19 06:32:00,
2013-05-19 02:37:00,53.6,44.4,-100.00,East,94,0.0,0.0,71,0.00,,,0.00,meteohub,2013-05-19 06:37:00,
2013-05-19 02:42:00,53.6,44.4,-100.00,East,94,0.0,1.0,71,0.00,,,0.00,meteohub,2013-05-19 06:42:00,
2013-05-19 02:47:00,53.8,44.6,-100.00,East,94,0.0,1.0,71,0.00,,,0.00,meteohub,2013-05-19 06:47:00,
2013-05-19 02:52:00,53.8,45.0,-100.00,East,94,0.0,1.0,72,0.00,,,0.00,meteohub,2013-05-19 06:52:00,
2013-05-19 02:57:00,53.4,45.0,-100.00,East,94,0.0,1.0,73,0.00,,,0.00,meteohub,2013-05-19 06:57:00,
2013-05-19 03:02:00,53.1,45.0,-100.00,East,94,0.0,0.0,74,0.00,,,0.00,meteohub,2013-05-19 07:02:00,
2013-05-19 03:07:00,52.5,44.8,-100.00,East,94,0.0,0.0,75,0.00,,,0.00,meteohub,2013-05-19 07:07:00,
2013-05-19 03:12:00,52.5,44.8,-100.00,East,94,0.0,0.0,75,0.00,,,0.00,meteohub,2013-05-19 07:12:00,
2013-05-19 03:18:00,52.3,44.2,-100.00,East,94,0.0,0.0,74,0.00,,,0.00,meteohub,2013-05-19 07:18:00,
2013-05-19 03:22:00,52.2,44.4,-100.00,East,94,0.0,0.0,75,0.00,,,0.00,meteohub,2013-05-19 07:22:00,
2013-05-19 03:28:00,52.0,44.2,-100.00,East,94,0.0,0.0,75,0.00,,,0.00,meteohub,2013-05-19 07:28:00,
2013-05-19 03:33:00,51.6,44.2,-100.00,East,94,0.0,0.0,76,0.00,,,0.00,meteohub,2013-05-19 07:33:00,
2013-05-19 03:38:00,51.6,44.6,-100.00,East,94,0.0,0.0,77,0.00,,,0.00,meteohub,2013-05-19 07:38:00,
2013-05-19 03:43:00,51.8,44.8,-100.00,East,94,0.0,0.0,77,0.00,,,0.00,meteohub,2013-05-19 07:43:00,
2013-05-19 03:48:00,52.0,45.0,-100.00,East,94,0.0,0.0,77,0.00,,,0.00,meteohub,2013-05-19 07:48:00,
2013-05-19 03:53:00,52.0,45.3,-100.00,East,94,0.0,0.0,78,0.00,,,0.00,meteohub,2013-05-19 07:53:00,
2013-05-19 03:58:00,51.8,45.1,-100.00,East,94,0.0,0.0,78,0.00,,,0.00,meteohub,2013-05-19 07:58:00,
2013-05-19 04:03:00,51.4,44.8,-100.00,East,94,0.0,0.0,78,0.00,,,0.00,meteohub,2013-05-19 08:03:00,
2013-05-19 04:08:00,51.3,44.6,-100.00,East,94,0.0,0.0,78,0.00,,,0.00,meteohub,2013-05-19 08:08:00,
2013-05-19 04:13:00,50.7,44.1,-100.00,East,94,0.0,0.0,78,0.00,,,0.00,meteohub,2013-05-19 08:13:00,
2013-05-19 04:18:00,50.4,44.1,-100.00,East,94,0.0,0.0,79,0.00,,,0.00,meteohub,2013-05-19 08:18:00,
2013-05-19 04:23:00,50.4,44.8,-100.00,East,94,0.0,0.0,81,0.00,,,0.00,meteohub,2013-05-19 08:23:00,
2013-05-19 04:28:00,50.5,45.0,-100.00,East,94,0.0,0.0,81,0.00,,,0.00,meteohub,2013-05-19 08:28:00,
2013-05-19 04:33:00,50.5,45.5,-100.00,East,94,0.0,0.0,83,0.00,,,0.00,meteohub,2013-05-19 08:33:00,
2013-05-19 04:38:00,50.5,45.5,-100.00,East,94,0.0,0.0,83,0.00,,,0.00,meteohub,2013-05-19 08:38:00,
2013-05-19 04:43:00,50.5,45.5,-100.00,East,94,0.0,0.0,83,0.00,,,0.00,meteohub,2013-05-19 08:43:00,
2013-05-19 04:48:00,50.5,45.5,-100.00,East,94,0.0,0.0,83,0.00,,,0.00,meteohub,2013-05-19 08:48:00,
2013-05-19 04:53:00,50.5,45.5,-100.00,East,94,0.0,0.0,83,0.00,,,0.00,meteohub,2013-05-19 08:53:00,
2013-05-19 04:58:00,50.5,45.9,-100.00,East,94,0.0,0.0,84,0.00,,,0.00,meteohub,2013-05-19 08:58:00,
2013-05-19 05:03:00,50.7,45.7,-100.00,East,97,0.0,0.0,83,0.00,,,0.00,meteohub,2013-05-19 09:03:00,
2013-05-19 05:08:00,50.7,45.5,-100.00,East,97,0.0,1.0,82,0.00,,,0.00,meteohub,2013-05-19 09:08:00,
2013-05-19 05:13:00,50.7,45.7,-100.00,East,97,0.0,1.0,83,0.00,,,0.00,meteohub,2013-05-19 09:13:00,
2013-05-19 05:18:00,50.9,45.9,-100.00,East,97,0.0,1.0,83,0.00,,,0.00,meteohub,2013-05-19 09:18:00,
2013-05-19 05:23:00,51.1,46.4,-100.00,East,97,0.0,0.0,84,0.00,,,0.00,meteohub,2013-05-19 09:23:00,
2013-05-19 05:28:00,51.1,46.0,-100.00,East,97,0.0,0.0,83,0.00,,,0.00,meteohub,2013-05-19 09:28:00,
2013-05-19 05:33:00,51.1,46.4,-100.00,East,97,0.0,0.0,84,0.00,,,0.00,meteohub,2013-05-19 09:33:00,
2013-05-19 05:38:00,51.1,46.8,-100.00,East,97,0.0,0.0,85,0.00,,,0.00,meteohub,2013-05-19 09:38:00,
2013-05-19 05:43:00,51.1,46.8,-100.00,East,97,0.0,0.0,85,0.00,,,0.00,meteohub,2013-05-19 09:43:00,
2013-05-19 05:48:00,51.1,47.1,-100.00,East,97,0.0,0.0,86,0.00,,,0.00,meteohub,2013-05-19 09:48:00,
2013-05-19 05:53:00,51.1,47.3,-100.00,East,97,0.0,0.0,87,0.00,,,0.00,meteohub,2013-05-19 09:53:00,
2013-05-19 05:59:00,50.9,47.1,-100.00,East,97,0.0,0.0,87,0.00,,,0.00,meteohub,2013-05-19 09:59:00,
2013-05-19 06:04:00,50.9,47.5,-100.00,East,97,0.0,0.0,88,0.00,,,0.00,meteohub,2013-05-19 10:04:00,
2013-05-19 06:09:00,51.1,47.7,-100.00,East,97,0.0,0.0,88,0.00,,,0.00,meteohub,2013-05-19 10:09:00,
2013-05-19 06:14:00,51.1,47.7,-100.00,East,96,0.0,0.0,88,0.00,,,0.00,meteohub,2013-05-19 10:14:00,
2013-05-19 06:19:00,51.3,47.8,-100.00,East,96,0.0,0.0,88,0.00,,,0.00,meteohub,2013-05-19 10:19:00,
2013-05-19 06:24:00,51.3,47.8,-100.00,East,96,0.0,0.0,88,0.00,,,0.00,meteohub,2013-05-19 10:24:00,
2013-05-19 06:29:00,51.4,48.0,-100.00,East,96,0.0,0.0,88,0.00,,,0.00,meteohub,2013-05-19 10:29:00,
2013-05-19 06:34:00,51.6,47.8,-100.00,East,96,0.0,0.0,87,0.00,,,0.00,meteohub,2013-05-19 10:34:00,
2013-05-19 06:39:00,51.6,47.8,-100.00,East,96,0.0,0.0,87,0.00,,,0.00,meteohub,2013-05-19 10:39:00,
2013-05-19 06:44:00,51.6,47.8,-100.00,East,96,0.0,0.0,87,0.00,,,0.00,meteohub,2013-05-19 10:44:00,
2013-05-19 06:49:00,52.0,48.2,-100.00,East,96,0.0,0.0,87,0.00,,,0.00,meteohub,2013-05-19 10:49:00,
2013-05-19 06:54:00,52.2,48.4,-100.00,East,97,0.0,0.0,87,0.00,,,0.00,meteohub,2013-05-19 10:54:00,
2013-05-19 06:59:00,52.5,48.7,-100.00,East,97,0.0,0.0,87,0.00,,,0.00,meteohub,2013-05-19 10:59:00,
2013-05-19 07:04:00,52.9,48.7,-100.00,East,97,0.0,0.0,86,0.00,,,0.00,meteohub,2013-05-19 11:04:00,
2013-05-19 07:09:00,53.2,48.9,-100.00,East,97,0.0,0.0,85,0.00,,,0.00,meteohub,2013-05-19 11:09:00,
2013-05-19 07:14:00,53.4,48.7,-100.00,East,96,0.0,0.0,84,0.00,,,0.00,meteohub,2013-05-19 11:14:00,
2013-05-19 07:19:00,53.8,48.7,-100.00,SW,232,0.0,0.0,83,0.00,,,0.00,meteohub,2013-05-19 11:19:00,
2013-05-19 07:24:00,54.0,48.9,-100.00,WSW,247,0.0,1.0,83,0.00,,,0.00,meteohub,2013-05-19 11:24:00,
2013-05-19 07:29:00,54.3,48.9,-100.00,WSW,254,0.0,1.0,82,0.00,,,0.00,meteohub,2013-05-19 11:29:00,
2013-05-19 07:34:00,54.7,48.9,-100.00,WSW,255,1.0,1.0,81,0.00,,,0.00,meteohub,2013-05-19 11:34:00,
2013-05-19 07:39:00,54.9,49.1,-100.00,WNW,290,2.0,2.0,81,0.00,,,0.00,meteohub,2013-05-19 11:39:00,
2013-05-19 07:44:00,55.2,49.5,-100.00,WNW,283,0.0,2.0,81,0.00,,,0.00,meteohub,2013-05-19 11:44:00,
2013-05-19 07:49:00,55.6,49.5,-100.00,WNW,285,0.0,2.0,80,0.00,,,0.00,meteohub,2013-05-19 11:49:00,
2013-05-19 07:54:00,55.9,49.8,-100.00,West,267,0.0,2.0,80,0.00,,,0.00,meteohub,2013-05-19 11:54:00,
2013-05-19 07:59:00,56.3,50.2,-100.00,WNW,295,0.0,2.0,80,0.00,,,0.00,meteohub,2013-05-19 11:59:00,
2013-05-19 08:04:00,56.7,49.8,-100.00,North,350,2.0,2.0,78,0.00,,,0.00,meteohub,2013-05-19 12:04:00,
2013-05-19 08:09:00,56.8,50.4,-100.00,NNW,333,1.0,3.0,79,0.00,,,0.00,meteohub,2013-05-19 12:09:00,
2013-05-19 08:14:00,57.0,50.2,-100.00,NW,319,1.0,4.0,78,0.00,,,0.00,meteohub,2013-05-19 12:14:00,
2013-05-19 08:19:00,57.4,50.5,-100.00,NW,322,1.0,4.0,78,0.00,,,0.00,meteohub,2013-05-19 12:19:00,
2013-05-19 08:24:00,57.6,51.1,-100.00,NE,49,0.0,4.0,79,0.00,,,0.00,meteohub,2013-05-19 12:24:00,
2013-05-19 08:29:00,57.6,50.4,-100.00,ENE,68,0.0,2.0,77,0.00,,,0.00,meteohub,2013-05-19 12:29:00,
2013-05-19 08:34:00,57.7,50.9,-100.00,ESE,108,1.0,2.0,78,0.00,,,0.00,meteohub,2013-05-19 12:34:00,
2013-05-19 08:39:00,58.1,51.3,-100.00,East,93,0.0,2.0,78,0.00,,,0.00,meteohub,2013-05-19 12:39:00,
2013-05-19 08:44:00,58.3,50.7,-100.00,ENE,77,1.0,2.0,76,0.00,,,0.00,meteohub,2013-05-19 12:44:00,
2013-05-19 08:49:00,58.5,50.9,-100.00,ENE,71,1.0,2.0,76,0.00,,,0.00,meteohub,2013-05-19 12:49:00,
2013-05-19 08:54:00,58.3,51.1,-100.00,NE,39,1.0,2.0,77,0.00,,,0.00,meteohub,2013-05-19 12:54:00,
2013-05-19 08:59:00,58.8,52.0,-100.00,East,86,0.0,2.0,78,0.00,,,0.00,meteohub,2013-05-19 12:59:00,
2013-05-19 09:04:00,59.5,52.0,-100.00,East,82,0.0,2.0,76,0.00,,,0.00,meteohub,2013-05-19 13:04:00,
2013-05-19 09:09:00,60.6,53.1,-100.00,East,82,0.0,2.0,76,0.00,,,0.00,meteohub,2013-05-19 13:09:00,
2013-05-19 09:14:00,61.5,53.2,-100.00,East,91,0.0,1.0,74,0.00,,,0.00,meteohub,2013-05-19 13:14:00,
2013-05-19 09:19:00,62.4,53.6,-100.00,East,90,0.0,1.0,73,0.00,,,0.00,meteohub,2013-05-19 13:19:00,
2013-05-19 09:25:00,63.3,54.5,-100.00,East,89,0.0,1.0,73,0.00,,,0.00,meteohub,2013-05-19 13:25:00,
2013-05-19 09:30:00,64.2,55.4,-100.00,NNE,21,0.0,2.0,73,0.00,,,0.00,meteohub,2013-05-19 13:30:00,
2013-05-19 09:35:00,64.9,54.9,-100.00,East,91,2.0,2.0,70,0.00,,,0.00,meteohub,2013-05-19 13:35:00,
2013-05-19 09:40:00,64.9,54.9,-100.00,ESE,113,0.0,2.0,70,0.00,,,0.00,meteohub,2013-05-19 13:40:00,
2013-05-19 09:45:00,65.8,55.4,-100.00,ENE,72,1.0,2.0,69,0.00,,,0.00,meteohub,2013-05-19 13:45:00,
2013-05-19 09:50:00,66.4,55.9,-100.00,NNW,339,0.0,2.0,69,0.00,,,0.00,meteohub,2013-05-19 13:50:00,
2013-05-19 09:55:00,66.6,54.9,-100.00,NNE,15,1.0,2.0,66,0.00,,,0.00,meteohub,2013-05-19 13:55:00,
2013-05-19 10:00:00,66.7,55.8,-100.00,NNE,19,2.0,3.0,68,0.00,,,0.00,meteohub,2013-05-19 14:00:00,
2013-05-19 10:05:00,66.7,56.3,-100.00,NE,50,1.0,5.0,69,0.00,,,0.00,meteohub,2013-05-19 14:05:00,
2013-05-19 10:10:00,67.3,56.3,-100.00,East,94,1.0,5.0,68,0.00,,,0.00,meteohub,2013-05-19 14:10:00,
2013-05-19 10:15:00,67.5,56.1,-100.00,NE,54,1.0,5.0,67,0.00,,,0.00,meteohub,2013-05-19 14:15:00,
2013-05-19 10:20:00,67.8,57.7,-100.00,NE,53,0.0,3.0,70,0.00,,,0.00,meteohub,2013-05-19 14:20:00,
2013-05-19 10:25:00,69.3,58.6,-100.00,NNW,337,0.0,3.0,69,0.00,,,0.00,meteohub,2013-05-19 14:25:00,
2013-05-19 10:30:00,70.0,58.1,-100.00,East,96,2.0,4.0,66,0.00,,,0.00,meteohub,2013-05-19 14:30:00,
2013-05-19 10:35:00,70.0,58.1,-100.00,ENE,70,3.0,4.0,66,0.00,,,0.00,meteohub,2013-05-19 14:35:00,
2013-05-19 10:40:00,69.3,57.4,-100.00,North,11,0.0,4.0,66,0.00,,,0.00,meteohub,2013-05-19 14:40:00,
2013-05-19 10:45:00,68.7,55.6,-100.00,NE,56,2.0,4.0,63,0.00,,,0.00,meteohub,2013-05-19 14:45:00,
2013-05-19 10:50:00,67.3,55.0,-100.00,ENE,60,2.0,4.0,65,0.00,,,0.00,meteohub,2013-05-19 14:50:00,
2013-05-19 10:55:00,67.1,57.0,-100.00,ESE,123,2.0,5.0,70,0.00,,,0.00,meteohub,2013-05-19 14:55:00,
2013-05-19 11:00:00,67.3,56.3,-100.00,East,86,2.0,5.0,68,0.00,,,0.00,meteohub,2013-05-19 15:00:00,
2013-05-19 11:05:00,67.8,57.2,-100.00,ESE,107,0.0,4.0,69,0.00,,,0.00,meteohub,2013-05-19 15:05:00,
2013-05-19 11:10:00,68.2,56.3,-100.00,NE,41,2.0,4.0,66,0.00,,,0.00,meteohub,2013-05-19 15:10:00,
2013-05-19 11:15:00,68.4,56.1,-100.00,NE,41,2.0,4.0,65,0.00,,,0.00,meteohub,2013-05-19 15:15:00,
2013-05-19 11:20:00,68.7,57.4,-100.00,NNE,28,2.0,4.0,67,0.00,,,0.00,meteohub,2013-05-19 15:20:00,
2013-05-19 11:25:00,70.0,57.7,-100.00,ENE,70,0.0,4.0,65,0.00,,,0.00,meteohub,2013-05-19 15:25:00,
2013-05-19 11:30:00,70.5,56.5,-100.00,East,91,1.0,5.0,61,0.00,,,0.00,meteohub,2013-05-19 15:30:00,
2013-05-19 11:35:00,70.2,57.4,-100.00,NE,49,2.0,5.0,64,0.00,,,0.00,meteohub,2013-05-19 15:35:00,
2013-05-19 11:40:00,70.3,58.1,-100.00,North,3,1.0,5.0,65,0.00,,,0.00,meteohub,2013-05-19 15:40:00,
2013-05-19 11:45:00,70.5,56.8,-100.00,ENE,67,2.0,4.0,62,0.00,,,0.00,meteohub,2013-05-19 15:45:00,
2013-05-19 11:50:00,69.6,55.9,-100.00,East,96,1.0,4.0,62,0.00,,,0.00,meteohub,2013-05-19 15:50:00,
2013-05-19 11:55:00,69.6,57.7,-100.00,NE,34,2.0,5.0,66,0.00,,,0.00,meteohub,2013-05-19 15:55:00,
2013-05-19 12:00:00,70.2,57.9,-100.00,ESE,113,0.0,5.0,65,0.00,,,0.00,meteohub,2013-05-19 16:00:00,
2013-05-19 12:05:00,71.2,58.5,-100.00,ESE,104,1.0,4.0,64,0.00,,,0.00,meteohub,2013-05-19 16:05:00,
2013-05-19 12:11:00,71.1,57.7,-100.00,NE,41,2.0,5.0,63,0.00,,,0.00,meteohub,2013-05-19 16:11:00,
2013-05-19 12:16:00,71.4,59.9,-100.00,East,84,1.0,5.0,67,0.00,,,0.00,meteohub,2013-05-19 16:16:00,
2013-05-19 12:21:00,72.9,58.6,-100.00,NNE,19,2.0,5.0,61,0.00,,,0.00,meteohub,2013-05-19 16:21:00,
2013-05-19 12:26:00,73.0,59.2,-100.00,East,84,2.0,3.0,62,0.00,,,0.00,meteohub,2013-05-19 16:26:00,
2013-05-19 12:31:00,73.4,60.4,-100.00,ESE,102,0.0,4.0,64,0.00,,,0.00,meteohub,2013-05-19 16:31:00,
2013-05-19 12:36:00,74.8,61.0,-100.00,ENE,60,2.0,4.0,62,0.00,,,0.00,meteohub,2013-05-19 16:36:00,
2013-05-19 12:41:00,75.7,60.4,-100.00,SE,143,1.0,4.0,59,0.00,,,0.00,meteohub,2013-05-19 16:41:00,
2013-05-19 12:46:00,76.5,59.2,-100.00,NNE,25,1.0,4.0,55,0.00,,,0.00,meteohub,2013-05-19 16:46:00,
2013-05-19 12:51:00,76.1,59.7,-100.00,North,0,1.0,4.0,57,0.00,,,0.00,meteohub,2013-05-19 16:51:00,
2013-05-19 12:56:00,76.5,61.0,-100.00,ESE,102,2.0,4.0,59,0.00,,,0.00,meteohub,2013-05-19 16:56:00,
2013-05-19 13:01:00,76.5,60.1,-100.00,ENE,64,1.0,6.0,57,0.00,,,0.00,meteohub,2013-05-19 17:01:00,
2013-05-19 13:06:00,75.4,60.1,-100.00,NNE,29,3.0,6.0,59,0.00,,,0.00,meteohub,2013-05-19 17:06:00,
2013-05-19 13:11:00,74.8,60.4,-100.00,NNE,22,2.0,6.0,61,0.00,,,0.00,meteohub,2013-05-19 17:11:00,
2013-05-19 13:16:00,75.2,59.9,-100.00,NNE,18,0.0,6.0,59,0.00,,,0.00,meteohub,2013-05-19 17:16:00,
2013-05-19 13:21:00,75.4,61.0,-100.00,NNW,329,1.0,6.0,61,0.00,,,0.00,meteohub,2013-05-19 17:21:00,
2013-05-19 13:26:00,75.4,60.1,-100.00,North,359,2.0,6.0,59,0.00,,,0.00,meteohub,2013-05-19 17:26:00,
2013-05-19 13:31:00,75.4,61.5,-100.00,NW,316,4.0,5.0,62,0.00,,,0.00,meteohub,2013-05-19 17:31:00,
2013-05-19 13:36:00,75.4,60.4,-100.00,ESE,122,1.0,5.0,60,0.00,,,0.00,meteohub,2013-05-19 17:36:00,
2013-05-19 13:41:00,76.1,60.8,-100.00,NNW,338,1.0,5.0,59,0.00,,,0.00,meteohub,2013-05-19 17:41:00,
2013-05-19 13:46:00,75.9,61.0,-100.00,WSW,255,0.0,4.0,60,0.00,,,0.00,meteohub,2013-05-19 17:46:00,
2013-05-19 13:51:00,75.4,60.4,-100.00,NNE,29,3.0,6.0,60,0.00,,,0.00,meteohub,2013-05-19 17:51:00,
2013-05-19 13:56:00,75.2,61.3,-100.00,NNE,15,2.0,6.0,62,0.00,,,0.00,meteohub,2013-05-19 17:56:00,
2013-05-19 14:01:00,75.4,61.0,-100.00,NNW,344,1.0,6.0,61,0.00,,,0.00,meteohub,2013-05-19 18:01:00,
2013-05-19 14:06:00,75.7,61.3,-100.00,NW,313,2.0,5.0,61,0.00,,,0.00,meteohub,2013-05-19 18:06:00,
2013-05-19 14:11:00,75.7,60.8,-100.00,West,267,0.0,5.0,60,0.00,,,0.00,meteohub,2013-05-19 18:11:00,
2013-05-19 14:16:00,75.9,60.6,-100.00,NNE,19,1.0,4.0,59,0.00,,,0.00,meteohub,2013-05-19 18:16:00,
2013-05-19 14:21:00,75.9,61.5,-100.00,NE,36,2.0,5.0,61,0.00,,,0.00,meteohub,2013-05-19 18:21:00,
2013-05-19 14:26:00,75.9,60.6,-100.00,NW,316,3.0,5.0,59,0.00,,,0.00,meteohub,2013-05-19 18:26:00,
2013-05-19 14:31:00,76.1,61.7,-100.00,NNW,332,3.0,5.0,61,0.00,,,0.00,meteohub,2013-05-19 18:31:00,
2013-05-19 14:36:00,75.7,60.8,-100.00,NE,53,3.0,5.0,60,0.00,,,0.00,meteohub,2013-05-19 18:36:00,
2013-05-19 14:41:00,75.6,60.3,-100.00,NNE,26,1.0,5.0,59,0.00,,,0.00,meteohub,2013-05-19 18:41:00,
2013-05-19 14:46:00,75.7,60.4,-100.00,SW,214,1.0,5.0,59,0.00,,,0.00,meteohub,2013-05-19 18:46:00,
2013-05-19 14:51:00,76.1,59.7,-100.00,SSE,164,2.0,4.0,57,0.00,,,0.00,meteohub,2013-05-19 18:51:00,
2013-05-19 14:56:00,76.3,61.0,-100.00,NNE,32,2.0,4.0,59,0.00,,,0.00,meteohub,2013-05-19 18:56:00,
2013-05-19 15:02:00,75.9,60.1,-100.00,NW,326,2.0,4.0,58,0.00,,,0.00,meteohub,2013-05-19 19:02:00,
2013-05-19 15:08:00,75.2,59.9,-100.00,NNE,27,4.0,6.0,59,0.00,,,0.00,meteohub,2013-05-19 19:08:00,
2013-05-19 15:13:00,74.1,59.7,-100.00,WNW,293,1.0,6.0,61,0.00,,,0.00,meteohub,2013-05-19 19:13:00,
2013-05-19 15:18:00,74.5,60.1,-100.00,North,8,2.0,6.0,61,0.00,,,0.00,meteohub,2013-05-19 19:18:00,
2013-05-19 15:23:00,74.1,59.7,-100.00,WNW,293,2.0,6.0,61,0.00,,,0.00,meteohub,2013-05-19 19:23:00,
2013-05-19 15:28:00,74.1,60.3,-100.00,NW,309,2.0,7.0,62,0.00,,,0.00,meteohub,2013-05-19 19:28:00,
2013-05-19 15:33:00,74.1,58.8,-100.00,NNW,332,4.0,7.0,59,0.00,,,0.00,meteohub,2013-05-19 19:33:00,
2013-05-19 15:38:00,73.8,59.0,-100.00,North,6,5.0,7.0,60,0.00,,,0.00,meteohub,2013-05-19 19:38:00,
2013-05-19 15:43:00,73.6,58.8,-100.00,West,279,2.0,8.0,60,0.00,,,0.00,meteohub,2013-05-19 19:43:00,
2013-05-19 15:48:00,73.8,59.5,-100.00,ENE,63,0.0,8.0,61,0.00,,,0.00,meteohub,2013-05-19 19:48:00,
2013-05-19 15:53:00,73.0,57.4,-100.00,WNW,293,1.0,8.0,58,0.00,,,0.00,meteohub,2013-05-19 19:53:00,
2013-05-19 15:58:00,72.3,58.1,-100.00,NW,318,5.0,8.0,61,0.00,,,0.00,meteohub,2013-05-19 19:58:00,
2013-05-19 16:03:00,71.8,57.6,-100.00,NW,307,5.0,8.0,61,0.00,,,0.00,meteohub,2013-05-19 20:03:00,
2013-05-19 16:08:00,71.4,58.6,-100.00,NW,314,3.0,8.0,64,0.00,,,0.00,meteohub,2013-05-19 20:08:00,
2013-05-19 16:13:00,71.8,58.5,-100.00,West,269,0.0,8.0,63,0.00,,,0.00,meteohub,2013-05-19 20:13:00,
2013-05-19 16:18:00,72.3,59.9,-100.00,NW,316,2.0,8.0,65,0.00,,,0.00,meteohub,2013-05-19 20:18:00,
2013-05-19 16:23:00,72.5,58.3,-100.00,WNW,289,3.0,7.0,61,0.00,,,0.00,meteohub,2013-05-19 20:23:00,
2013-05-19 16:28:00,72.3,59.5,-100.00,ESE,103,2.0,7.0,64,0.00,,,0.00,meteohub,2013-05-19 20:28:00,
2013-05-19 16:33:00,72.3,58.6,-100.00,NW,310,3.0,6.0,62,0.00,,,0.00,meteohub,2013-05-19 20:33:00,
2013-05-19 16:38:00,72.7,59.4,-100.00,SE,130,0.0,6.0,63,0.00,,,0.00,meteohub,2013-05-19 20:38:00,
2013-05-19 16:43:00,73.6,59.7,-100.00,West,274,0.0,6.0,62,0.00,,,0.00,meteohub,2013-05-19 20:43:00,
2013-05-19 16:48:00,73.6,58.8,-100.00,NW,321,0.0,6.0,60,0.00,,,0.00,meteohub,2013-05-19 20:48:00,
2013-05-19 16:53:00,73.6,58.8,-100.00,ENE,75,1.0,6.0,60,0.00,,,0.00,meteohub,2013-05-19 20:53:00,
2013-05-19 16:58:00,73.8,59.9,-100.00,NW,326,2.0,5.0,62,0.00,,,0.00,meteohub,2013-05-19 20:58:00,
2013-05-19 17:03:00,74.1,59.4,-100.00,ENE,63,1.0,5.0,60,0.00,,,0.00,meteohub,2013-05-19 21:03:00,
2013-05-19 17:08:00,74.7,59.9,-100.00,NE,37,0.0,5.0,60,0.00,,,0.00,meteohub,2013-05-19 21:08:00,
2013-05-19 17:13:00,74.8,59.5,-100.00,ENE,77,1.0,4.0,59,0.00,,,0.00,meteohub,2013-05-19 21:13:00,
2013-05-19 17:19:00,75.0,60.3,-100.00,ESE,122,0.0,6.0,60,0.00,,,0.00,meteohub,2013-05-19 21:19:00,
2013-05-19 17:24:00,75.7,60.8,-100.00,North,354,0.0,6.0,60,0.00,,,0.00,meteohub,2013-05-19 21:24:00,
2013-05-19 17:29:00,75.9,60.1,-100.00,North,359,3.0,6.0,58,0.00,,,0.00,meteohub,2013-05-19 21:29:00,
2013-05-19 17:34:00,75.7,59.9,-100.00,ENE,66,0.0,4.0,58,0.00,,,0.00,meteohub,2013-05-19 21:34:00,
2013-05-19 17:39:00,75.9,60.6,-100.00,West,275,1.0,4.0,59,0.00,,,0.00,meteohub,2013-05-19 21:39:00,
2013-05-19 17:44:00,76.3,60.4,-100.00,NE,35,0.0,4.0,58,0.00,,,0.00,meteohub,2013-05-19 21:44:00,
2013-05-19 17:49:00,76.6,60.3,-100.00,NNE,25,3.0,4.0,57,0.00,,,0.00,meteohub,2013-05-19 21:49:00,
2013-05-19 17:54:00,77.2,61.3,-100.00,NNE,32,0.0,3.0,58,0.00,,,0.00,meteohub,2013-05-19 21:54:00,
2013-05-19 17:59:00,77.5,60.6,-100.00,NE,41,0.0,3.0,56,0.00,,,0.00,meteohub,2013-05-19 21:59:00,
2013-05-19 18:04:00,77.7,60.8,-100.00,East,101,0.0,3.0,56,0.00,,,0.00,meteohub,2013-05-19 22:04:00,
2013-05-19 18:09:00,77.7,60.8,-100.00,NNE,25,1.0,2.0,56,0.00,,,0.00,meteohub,2013-05-19 22:09:00,
2013-05-19 18:14:00,77.9,61.0,-100.00,ENE,65,0.0,2.0,56,0.00,,,0.00,meteohub,2013-05-19 22:14:00,
2013-05-19 18:19:00,78.1,61.2,-100.00,East,98,0.0,2.0,56,0.00,,,0.00,meteohub,2013-05-19 22:19:00,
2013-05-19 18:24:00,78.3,61.3,-100.00,NE,43,2.0,2.0,56,0.00,,,0.00,meteohub,2013-05-19 22:24:00,
2013-05-19 18:29:00,78.3,61.3,-100.00,East,84,1.0,2.0,56,0.00,,,0.00,meteohub,2013-05-19 22:29:00,
2013-05-19 18:34:00,78.3,61.7,-100.00,ENE,66,0.0,2.0,57,0.00,,,0.00,meteohub,2013-05-19 22:34:00,
2013-05-19 18:39:00,78.1,61.5,-100.00,NNE,22,0.0,2.0,57,0.00,,,0.00,meteohub,2013-05-19 22:39:00,
2013-05-19 18:44:00,77.7,61.3,-100.00,NNE,15,0.0,2.0,57,0.00,,,0.00,meteohub,2013-05-19 22:44:00,
2013-05-19 18:49:00,77.7,61.3,-100.00,NNW,341,0.0,2.0,57,0.00,,,0.00,meteohub,2013-05-19 22:49:00,
2013-05-19 18:54:00,77.4,61.3,-100.00,NE,41,0.0,1.0,58,0.00,,,0.00,meteohub,2013-05-19 22:54:00,
2013-05-19 18:59:00,75.9,59.5,-100.00,East,84,1.0,1.0,57,0.00,,,0.00,meteohub,2013-05-19 22:59:00,
2013-05-19 19:04:00,72.9,58.6,-100.00,East,84,0.0,1.0,61,0.00,,,0.00,meteohub,2013-05-19 23:04:00,
2013-05-19 19:09:00,70.9,58.1,-100.00,ENE,77,1.0,2.0,64,0.00,,,0.00,meteohub,2013-05-19 23:09:00,
2013-05-19 19:14:00,70.0,59.4,-100.00,NE,42,2.0,2.0,69,0.00,,,0.00,meteohub,2013-05-19 23:14:00,
2013-05-19 19:19:00,70.0,58.5,-100.00,NNE,13,1.0,6.0,67,0.00,,,0.00,meteohub,2013-05-19 23:19:00,
2013-05-19 19:24:00,69.3,57.9,-100.00,North,9,1.0,6.0,67,0.00,,,0.00,meteohub,2013-05-19 23:24:00,
2013-05-19 19:29:00,68.4,57.4,-100.00,NNE,20,1.0,6.0,68,0.00,,,0.00,meteohub,2013-05-19 23:29:00,
2013-05-19 19:34:00,67.5,57.0,-100.00,North,8,0.0,6.0,69,0.00,,,0.00,meteohub,2013-05-19 23:34:00,
2013-05-19 19:39:00,66.4,56.3,-100.00,NE,49,0.0,4.0,70,0.00,,,0.00,meteohub,2013-05-19 23:39:00,
2013-05-19 19:44:00,65.5,55.8,-100.00,ENE,65,0.0,3.0,71,0.00,,,0.00,meteohub,2013-05-19 23:44:00,
2013-05-19 19:49:00,64.8,55.9,-100.00,ENE,60,0.0,4.0,73,0.00,,,0.00,meteohub,2013-05-19 23:49:00,
2013-05-19 19:54:00,64.0,55.2,-100.00,NNW,340,0.0,4.0,73,0.00,,,0.00,meteohub,2013-05-19 23:54:00,
2013-05-19 19:59:00,63.7,55.2,-100.00,NE,44,0.0,4.0,74,0.00,,,0.00,meteohub,2013-05-19 23:59:00,
2013-05-19 20:04:00,63.3,55.2,-100.00,East,84,0.0,2.0,75,0.00,,,0.00,meteohub,2013-05-20 00:04:00,
2013-05-19 20:09:00,63.1,55.4,-100.00,ENE,70,0.0,2.0,76,0.00,,,0.00,meteohub,2013-05-20 00:09:00,
2013-05-19 20:14:00,63.0,55.6,-100.00,ESE,113,0.0,1.0,77,0.00,,,0.00,meteohub,2013-05-20 00:14:00,
2013-05-19 20:19:00,62.8,55.4,-100.00,ESE,114,0.0,2.0,77,0.00,,,0.00,meteohub,2013-05-20 00:19:00,
2013-05-19 20:24:00,62.8,55.8,-100.00,ESE,114,0.0,2.0,78,0.00,,,0.00,meteohub,2013-05-20 00:24:00,
2013-05-19 20:30:00,62.8,55.8,-100.00,ESE,115,0.0,1.0,78,0.00,,,0.00,meteohub,2013-05-20 00:30:00,
2013-05-19 20:35:00,62.8,55.8,-100.00,ESE,115,0.0,0.0,78,0.00,,,0.00,meteohub,2013-05-20 00:35:00,
2013-05-19 20:40:00,62.8,56.1,-100.00,South,170,0.0,1.0,79,0.00,,,0.00,meteohub,2013-05-20 00:40:00,
2013-05-19 20:45:00,62.8,56.1,-100.00,South,170,0.0,1.0,79,0.00,,,0.00,meteohub,2013-05-20 00:45:00,
2013-05-19 20:50:00,62.6,56.3,-100.00,South,171,0.0,1.0,80,0.00,,,0.00,meteohub,2013-05-20 00:50:00,
2013-05-19 20:55:00,62.4,56.1,-100.00,South,171,0.0,0.0,80,0.00,,,0.00,meteohub,2013-05-20 00:55:00,
2013-05-19 21:00:00,62.2,56.3,-100.00,South,170,0.0,0.0,81,0.00,,,0.00,meteohub,2013-05-20 01:00:00,
2013-05-19 21:05:00,62.2,56.3,-100.00,South,171,0.0,0.0,81,0.00,,,0.00,meteohub,2013-05-20 01:05:00,
2013-05-19 21:10:00,62.4,56.5,-100.00,SSE,166,0.0,1.0,81,0.00,,,0.00,meteohub,2013-05-20 01:10:00,
2013-05-19 21:15:00,62.4,56.5,-100.00,SSE,166,0.0,1.0,81,0.00,,,0.00,meteohub,2013-05-20 01:15:00,
2013-05-19 21:20:00,62.1,56.1,-100.00,SSE,166,0.0,1.0,81,0.00,,,0.00,meteohub,2013-05-20 01:20:00,
2013-05-19 21:25:00,61.9,55.9,-100.00,SSE,166,0.0,0.0,81,0.00,,,0.00,meteohub,2013-05-20 01:25:00,
2013-05-19 21:30:00,61.5,55.9,-100.00,SSE,166,0.0,0.0,82,0.00,,,0.00,meteohub,2013-05-20 01:30:00,
2013-05-19 21:35:00,61.7,56.1,-100.00,SSE,166,0.0,0.0,82,0.00,,,0.00,meteohub,2013-05-20 01:35:00,
2013-05-19 21:40:00,61.5,55.6,-100.00,SSE,166,0.0,0.0,81,0.00,,,0.00,meteohub,2013-05-20 01:40:00,
2013-05-19 21:45:00,61.3,55.8,-100.00,SSE,166,0.0,0.0,82,0.00,,,0.00,meteohub,2013-05-20 01:45:00,
2013-05-19 21:50:00,61.3,55.8,-100.00,SSE,166,0.0,0.0,82,0.00,,,0.00,meteohub,2013-05-20 01:50:00,
2013-05-19 21:55:00,61.3,55.8,-100.00,WSW,240,0.0,0.0,82,0.00,,,0.00,meteohub,2013-05-20 01:55:00,
2013-05-19 22:00:00,61.3,55.8,-100.00,WNW,290,1.0,0.0,82,0.00,,,0.00,meteohub,2013-05-20 02:00:00,
2013-05-19 22:05:00,61.2,54.3,-100.00,NW,309,5.0,7.0,78,0.00,,,0.00,meteohub,2013-05-20 02:05:00,
2013-05-19 22:10:00,58.8,52.7,-100.00,NW,308,5.0,13.0,80,0.00,,,0.00,meteohub,2013-05-20 02:10:00,
2013-05-19 22:15:00,57.4,52.0,-100.00,NW,314,6.0,13.0,82,0.00,,,0.00,meteohub,2013-05-20 02:15:00,
2013-05-19 22:21:00,56.5,51.6,-100.00,WNW,293,2.0,10.0,84,0.00,,,0.00,meteohub,2013-05-20 02:21:00,
2013-05-19 22:26:00,55.9,51.4,-100.00,West,267,3.0,7.0,85,0.00,,,0.00,meteohub,2013-05-20 02:26:00,
2013-05-19 22:31:00,55.8,51.6,-100.00,West,264,3.0,7.0,86,0.00,,,0.00,meteohub,2013-05-20 02:31:00,
2013-05-19 22:36:00,55.8,51.6,-100.00,WSW,248,3.0,6.0,86,0.00,,,0.00,meteohub,2013-05-20 02:36:00,
2013-05-19 22:41:00,55.8,51.6,-100.00,West,278,1.0,5.0,86,0.00,,,0.00,meteohub,2013-05-20 02:41:00,
2013-05-19 22:46:00,55.8,51.6,-100.00,WSW,257,1.0,5.0,86,0.00,,,0.00,meteohub,2013-05-20 02:46:00,
2013-05-19 22:51:00,55.6,51.4,-100.00,WSW,250,2.0,4.0,86,0.00,,,0.00,meteohub,2013-05-20 02:51:00,
2013-05-19 22:56:00,55.4,51.3,-100.00,West,259,2.0,3.0,86,0.00,,,0.00,meteohub,2013-05-20 02:56:00,
2013-05-19 23:01:00,55.2,51.4,-100.00,SW,223,0.0,3.0,87,0.00,,,0.00,meteohub,2013-05-20 03:01:00,
2013-05-19 23:06:00,55.0,51.3,-100.00,SW,236,2.0,3.0,87,0.00,,,0.00,meteohub,2013-05-20 03:06:00,
2013-05-19 23:11:00,54.9,51.1,-100.00,WSW,254,0.0,3.0,87,0.00,,,0.00,meteohub,2013-05-20 03:11:00,
2013-05-19 23:16:00,54.9,51.1,-100.00,WSW,254,0.0,3.0,87,0.00,,,0.00,meteohub,2013-05-20 03:16:00,
2013-05-19 23:21:00,54.9,51.1,-100.00,South,184,0.0,3.0,87,0.00,,,0.00,meteohub,2013-05-20 03:21:00,
2013-05-19 23:26:00,54.7,50.9,-100.00,South,187,0.0,1.0,87,0.00,,,0.00,meteohub,2013-05-20 03:26:00,
2013-05-19 23:31:00,54.7,51.3,-100.00,SW,227,0.0,1.0,88,0.00,,,0.00,meteohub,2013-05-20 03:31:00,
2013-05-19 23:36:00,54.7,50.9,-100.00,SW,227,0.0,1.0,87,0.00,,,0.00,meteohub,2013-05-20 03:36:00,
2013-05-19 23:41:00,54.7,51.3,-100.00,WSW,238,0.0,1.0,88,0.00,,,0.00,meteohub,2013-05-20 03:41:00,
2013-05-19 23:46:00,54.7,51.3,-100.00,WSW,245,0.0,1.0,88,0.00,,,0.00,meteohub,2013-05-20 03:46:00,
2013-05-19 23:51:00,54.7,51.3,-100.00,WSW,243,0.0,1.0,88,0.00,,,0.00,meteohub,2013-05-20 03:51:00,
2013-05-19 23:56:00,54.7,51.3,-100.00,WSW,245,0.0,1.0,88,0.00,,,0.00,meteohub,2013-05-20 03:56:00,